Alto Crest, New Mexico
Current Conditions -  °F | °C
As of 2:15 AM on Thursday 27 Nov 2014 (Local Time) from KSRR Reporting Station
Clear Clear  
Wind Chill: 34°   Ceiling: Unl
Heat Index: 37°   Visibility: 10mi
Dew Point: 19°   Wind: 5mph
Humidity: 48%   Direction: 190°S
Pressure: 30.43"   Gusts: NA
Location:  33.3909°N, 105.634°W
Report Text: KSRR 270915Z AUTO 19004KT 10SM CLR 03/M07 A3043 RMK AO2
Loading
Personal Weather Stations






























Interactive Weather Map New forecast layout! Learn more

10-Day Weather Forecast

Advertisements
Track Severe Weather on mobile